Hawthorne, Indiana
Current Conditions -  °F | °C
As of 1:53 PM on Friday 28 Nov 2014 (Local Time) from KBMG Reporting Station
Clear Clear  
Wind Chill: 28°   Ceiling: Unl
Heat Index: 35°   Visibility: 10mi
Dew Point: 24°   Wind: 9mph
Humidity: 64%   Direction: 180°S
Pressure: 30.21"   Gusts: NA
Location:  38.8737°N, 86.4563°W
Report Text: KBMG 281853Z 18008KT 10SM CLR 02/M04 A3021 RMK AO2 SLP238 T00171044
Loading
Personal Weather Stations






























Interactive Weather Map New forecast layout! Learn more

10-Day Weather Forecast

Advertisements
Track Severe Weather on mobile